sensor_id;sensor_type;location;lat;lon;timestamp;pressure;altitude;pressure_sealevel;temperature;humidity
43312;BME280;30041;48.300;16.352;2023-04-26T00:01:41;99501.97;;;23.18;44.52
43312;BME280;30041;48.300;16.352;2023-04-26T00:04:06;99509.53;;;23.16;44.34
43312;BME280;30041;48.300;16.352;2023-04-26T00:06:32;99508.44;;;23.17;44.38
43312;BME280;30041;48.300;16.352;2023-04-26T00:08:58;99512.22;;;23.16;44.33
43312;BME280;30041;48.300;16.352;2023-04-26T00:11:23;99517.63;;;23.16;44.24
43312;BME280;30041;48.300;16.352;2023-04-26T00:13:49;99513.84;;;23.17;44.08
43312;BME280;30041;48.300;16.352;2023-04-26T00:16:14;99520.91;;;23.18;44.24
43312;BME280;30041;48.300;16.352;2023-04-26T00:18:39;99520.91;;;23.18;44.07
43312;BME280;30041;48.300;16.352;2023-04-26T00:21:05;99526.56;;;23.16;43.97
43312;BME280;30041;48.300;16.352;2023-04-26T00:23:31;99530.06;;;23.17;44.42
43312;BME280;30041;48.300;16.352;2023-04-26T00:25:56;99527.94;;;23.19;44.15
43312;BME280;30041;48.300;16.352;2023-04-26T00:28:21;99525.75;;;23.16;44.05
43312;BME280;30041;48.300;16.352;2023-04-26T00:30:47;99519.78;;;23.14;44.04
43312;BME280;30041;48.300;16.352;2023-04-26T00:33:12;99530.88;;;23.17;44.07
43312;BME280;30041;48.300;16.352;2023-04-26T00:35:38;99529.50;;;23.15;43.98
43312;BME280;30041;48.300;16.352;2023-04-26T00:38:03;99530.34;;;23.15;44.25
43312;BME280;30041;48.300;16.352;2023-04-26T00:40:30;99530.59;;;23.14;44.22
43312;BME280;30041;48.300;16.352;2023-04-26T00:42:58;99539.50;;;23.14;44.40
43312;BME280;30041;48.300;16.352;2023-04-26T00:45:24;99530.34;;;23.15;44.24
43312;BME280;30041;48.300;16.352;2023-04-26T00:47:50;99531.41;;;23.14;44.22
43312;BME280;30041;48.300;16.352;2023-04-26T00:50:15;99535.19;;;23.13;43.95
43312;BME280;30041;48.300;16.352;2023-04-26T00:52:42;99527.88;;;23.14;44.23
43312;BME280;30041;48.300;16.352;2023-04-26T00:55:09;99528.69;;;23.14;44.01
43312;BME280;30041;48.300;16.352;2023-04-26T00:57:35;99528.94;;;23.13;44.16
43312;BME280;30041;48.300;16.352;2023-04-26T01:00:00;99535.75;;;23.15;44.06
43312;BME280;30041;48.300;16.352;2023-04-26T01:02:26;99525.19;;;23.14;44.08
43312;BME280;30041;48.300;16.352;2023-04-26T01:04:51;99519.78;;;23.14;44.35
43312;BME280;30041;48.300;16.352;2023-04-26T01:07:16;99527.88;;;23.14;43.84
43312;BME280;30041;48.300;16.352;2023-04-26T01:09:43;99528.13;;;23.12;43.99
43312;BME280;30041;48.300;16.352;2023-04-26T01:12:09;99525.75;;;23.16;43.99
43312;BME280;30041;48.300;16.352;2023-04-26T01:14:35;99527.88;;;23.14;44.18
43312;BME280;30041;48.300;16.352;2023-04-26T01:17:02;99530.59;;;23.14;43.98
43312;BME280;30041;48.300;16.352;2023-04-26T01:19:27;99528.94;;;23.13;43.98
43312;BME280;30041;48.300;16.352;2023-04-26T01:21:53;99534.09;;;23.14;43.97
43312;BME280;30041;48.300;16.352;2023-04-26T01:24:18;99531.41;;;23.14;43.86
43312;BME280;30041;48.300;16.352;2023-04-26T01:26:43;99536.00;;;23.14;44.19
43312;BME280;30041;48.300;16.352;2023-04-26T01:29:16;99543.28;;;23.13;44.15
43312;BME280;30041;48.300;16.352;2023-04-26T01:31:42;99544.91;;;23.14;44.20
43312;BME280;30041;48.300;16.352;2023-04-26T01:34:08;99551.66;;;23.12;44.27
43312;BME280;30041;48.300;16.352;2023-04-26T01:36:33;99552.72;;;23.11;44.00
43312;BME280;30041;48.300;16.352;2023-04-26T01:38:59;99567.28;;;23.10;44.14
43312;BME280;30041;48.300;16.352;2023-04-26T01:41:24;99559.75;;;23.12;44.02
43312;BME280;30041;48.300;16.352;2023-04-26T01:43:50;99558.94;;;23.11;44.16
43312;BME280;30041;48.300;16.352;2023-04-26T01:46:15;99562.47;;;23.12;43.90
43312;BME280;30041;48.300;16.352;2023-04-26T01:48:41;99570.56;;;23.12;44.16
43312;BME280;30041;48.300;16.352;2023-04-26T01:51:06;99570.81;;;23.10;43.95
43312;BME280;30041;48.300;16.352;2023-04-26T01:53:32;99569.75;;;23.11;43.93
43312;BME280;30041;48.300;16.352;2023-04-26T01:56:01;99571.88;;;23.09;44.07
43312;BME280;30041;48.300;16.352;2023-04-26T01:58:28;99569.75;;;23.11;43.93
43312;BME280;30041;48.300;16.352;2023-04-26T02:00:53;99567.06;;;23.11;43.93
43312;BME280;30041;48.300;16.352;2023-04-26T02:03:19;99571.66;;;23.11;43.77
43312;BME280;30041;48.300;16.352;2023-04-26T02:05:45;99570.22;;;23.08;44.06
43312;BME280;30041;48.300;16.352;2023-04-26T02:08:10;99571.66;;;23.11;43.95
43312;BME280;30041;48.300;16.352;2023-04-26T02:10:36;99572.69;;;23.10;44.17
43312;BME280;30041;48.300;16.352;2023-04-26T02:13:01;99574.34;;;23.11;43.95
43312;BME280;30041;48.300;16.352;2023-04-26T02:15:27;99577.06;;;23.11;43.99
43312;BME280;30041;48.300;16.352;2023-04-26T02:17:52;99578.09;;;23.10;43.95
43312;BME280;30041;48.300;16.352;2023-04-26T02:20:18;99582.19;;;23.12;44.10
43312;BME280;30041;48.300;16.352;2023-04-26T02:22:44;99572.69;;;23.10;44.08
43312;BME280;30041;48.300;16.352;2023-04-26T02:25:09;99573.50;;;23.10;43.92
43312;BME280;30041;48.300;16.352;2023-04-26T02:27:35;99572.69;;;23.10;43.96
43312;BME280;30041;48.300;16.352;2023-04-26T02:30:00;99578.69;;;23.12;44.08
43312;BME280;30041;48.300;16.352;2023-04-26T02:32:26;99571.06;;;23.09;44.15
43312;BME280;30041;48.300;16.352;2023-04-26T02:34:51;99571.06;;;23.09;43.91
43312;BME280;30041;48.300;16.352;2023-04-26T02:37:17;99572.94;;;23.08;43.89
43312;BME280;30041;48.300;16.352;2023-04-26T02:39:42;99575.63;;;23.08;43.75
43312;BME280;30041;48.300;16.352;2023-04-26T02:42:08;99576.72;;;23.07;44.15
43312;BME280;30041;48.300;16.352;2023-04-26T02:44:34;99571.88;;;23.09;43.85
43312;BME280;30041;48.300;16.352;2023-04-26T02:46:59;99579.19;;;23.09;44.02
43312;BME280;30041;48.300;16.352;2023-04-26T02:49:25;99578.09;;;23.10;43.77
43312;BME280;30041;48.300;16.352;2023-04-26T02:51:50;99571.06;;;23.09;44.10
43312;BME280;30041;48.300;16.352;2023-04-26T02:54:16;99567.53;;;23.08;43.98
43312;BME280;30041;48.300;16.352;2023-04-26T02:56:41;99573.22;;;23.07;43.86
43312;BME280;30041;48.300;16.352;2023-04-26T02:59:07;99564.03;;;23.08;44.01
43312;BME280;30041;48.300;16.352;2023-04-26T03:01:32;99562.41;;;23.07;43.66
43312;BME280;30041;48.300;16.352;2023-04-26T03:03:58;99572.94;;;23.08;44.13
43312;BME280;30041;48.300;16.352;2023-04-26T03:06:23;99573.44;;;23.05;43.80
43312;BME280;30041;48.300;16.352;2023-04-26T03:08:49;99569.44;;;23.08;43.76
43312;BME280;30041;48.300;16.352;2023-04-26T03:11:14;99578.63;;;23.07;43.71
43312;BME280;30041;48.300;16.352;2023-04-26T03:13:40;99583.19;;;23.06;43.80
43312;BME280;30041;48.300;16.352;2023-04-26T03:16:05;99584.84;;;23.07;43.93
43312;BME280;30041;48.300;16.352;2023-04-26T03:18:31;99578.63;;;23.07;43.76
43312;BME280;30041;48.300;16.352;2023-04-26T03:20:56;99577.78;;;23.06;43.88
43312;BME280;30041;48.300;16.352;2023-04-26T03:23:22;99579.44;;;23.07;43.91
43312;BME280;30041;48.300;16.352;2023-04-26T03:25:47;99578.84;;;23.05;43.92
43312;BME280;30041;48.300;16.352;2023-04-26T03:28:13;99577.78;;;23.06;43.85
43312;BME280;30041;48.300;16.352;2023-04-26T03:30:38;99576.97;;;23.06;43.80
43312;BME280;30041;48.300;16.352;2023-04-26T03:33:04;99574.53;;;23.04;43.83
43312;BME280;30041;48.300;16.352;2023-04-26T03:35:29;99582.38;;;23.06;43.98
43312;BME280;30041;48.300;16.352;2023-04-26T03:37:55;99586.41;;;23.03;44.09
43312;BME280;30041;48.300;16.352;2023-04-26T03:40:20;99585.34;;;23.04;43.85
43312;BME280;30041;48.300;16.352;2023-04-26T03:42:46;99590.47;;;23.06;44.09
43312;BME280;30041;48.300;16.352;2023-04-26T03:45:11;99596.97;;;23.05;43.83
43312;BME280;30041;48.300;16.352;2023-04-26T03:47:37;99600.25;;;23.07;43.58
43312;BME280;30041;48.300;16.352;2023-04-26T03:50:03;99604.00;;;23.06;44.09
43312;BME280;30041;48.300;16.352;2023-04-26T03:52:28;99600.47;;;23.05;43.72
43312;BME280;30041;48.300;16.352;2023-04-26T03:54:54;99607.50;;;23.06;43.79
43312;BME280;30041;48.300;16.352;2023-04-26T03:57:19;99602.63;;;23.03;43.91
43312;BME280;30041;48.300;16.352;2023-04-26T03:59:45;99612.09;;;23.06;43.91
43312;BME280;30041;48.300;16.352;2023-04-26T04:02:10;99609.41;;;23.06;43.75
43312;BME280;30041;48.300;16.352;2023-04-26T04:04:36;99610.72;;;23.03;43.87
43312;BME280;30041;48.300;16.352;2023-04-26T04:07:01;99609.34;;;23.00;43.81
43312;BME280;30041;48.300;16.352;2023-04-26T04:09:27;99612.38;;;23.04;43.71
43312;BME280;30041;48.300;16.352;2023-04-26T04:11:52;99618.00;;;23.03;43.84
43312;BME280;30041;48.300;16.352;2023-04-26T04:14:18;99616.38;;;23.02;44.19
43312;BME280;30041;48.300;16.352;2023-04-26T04:16:43;99620.72;;;23.03;44.12
43312;BME280;30041;48.300;16.352;2023-04-26T04:19:09;99629.63;;;23.03;43.91
43312;BME280;30041;48.300;16.352;2023-04-26T04:21:34;99619.06;;;23.02;43.88
43312;BME280;30041;48.300;16.352;2023-04-26T04:24:00;99626.59;;;22.99;44.17
43312;BME280;30041;48.300;16.352;2023-04-26T04:26:25;99631.44;;;22.97;43.94
43312;BME280;30041;48.300;16.352;2023-04-26T04:28:51;99628.72;;;22.97;44.15
43312;BME280;30041;48.300;16.352;2023-04-26T04:31:16;99633.00;;;22.93;44.41
43312;BME280;30041;48.300;16.352;2023-04-26T04:33:42;99629.78;;;22.96;44.16
43312;BME280;30041;48.300;16.352;2023-04-26T04:36:08;99637.06;;;22.96;44.04
43312;BME280;30041;48.300;16.352;2023-04-26T04:38:34;99640.59;;;22.96;44.00
43312;BME280;30041;48.300;16.352;2023-04-26T04:40:59;99635.19;;;22.96;44.16
43312;BME280;30041;48.300;16.352;2023-04-26T04:43:25;99638.47;;;22.98;44.02
43312;BME280;30041;48.300;16.352;2023-04-26T04:45:50;99640.69;;;23.02;44.19
43312;BME280;30041;48.300;16.352;2023-04-26T04:48:16;99647.19;;;23.00;44.12
43312;BME280;30041;48.300;16.352;2023-04-26T04:50:42;99644.94;;;22.97;44.25
43312;BME280;30041;48.300;16.352;2023-04-26T04:53:08;99650.34;;;22.97;44.35
43312;BME280;30041;48.300;16.352;2023-04-26T04:55:34;99653.88;;;22.98;44.18
43312;BME280;30041;48.300;16.352;2023-04-26T04:57:59;99652.47;;;22.95;44.24
43312;BME280;30041;48.300;16.352;2023-04-26T05:00:25;99652.63;;;22.72;43.40
43312;BME280;30041;48.300;16.352;2023-04-26T05:02:50;99650.75;;;22.55;43.52
43312;BME280;30041;48.300;16.352;2023-04-26T05:05:15;99650.09;;;22.48;43.33
43312;BME280;30041;48.300;16.352;2023-04-26T05:07:41;99655.97;;;22.45;42.98
43312;BME280;30041;48.300;16.352;2023-04-26T05:10:07;99653.13;;;22.35;42.87
43312;BME280;30041;48.300;16.352;2023-04-26T05:12:32;99658.59;;;22.40;43.45
43312;BME280;30041;48.300;16.352;2023-04-26T05:14:58;99656.47;;;22.42;43.87
43312;BME280;30041;48.300;16.352;2023-04-26T05:17:23;99662.69;;;22.43;43.78
43312;BME280;30041;48.300;16.352;2023-04-26T05:19:49;99665.38;;;22.43;44.29
43312;BME280;30041;48.300;16.352;2023-04-26T05:22:14;99664.06;;;22.45;44.29
43312;BME280;30041;48.300;16.352;2023-04-26T05:24:40;99660.56;;;22.45;44.82
43312;BME280;30041;48.300;16.352;2023-04-26T05:27:05;99661.94;;;22.47;44.42
43312;BME280;30041;48.300;16.352;2023-04-26T05:29:31;99669.84;;;22.37;45.06
43312;BME280;30041;48.300;16.352;2023-04-26T05:31:56;99679.84;;;22.36;45.17
43312;BME280;30041;48.300;16.352;2023-04-26T05:34:22;99681.16;;;22.34;44.85
43312;BME280;30041;48.300;16.352;2023-04-26T05:36:48;99686.22;;;22.30;45.09
43312;BME280;30041;48.300;16.352;2023-04-26T05:39:15;99688.69;;;22.32;45.42
43312;BME280;30041;48.300;16.352;2023-04-26T05:41:40;99681.72;;;22.36;44.99
43312;BME280;30041;48.300;16.352;2023-04-26T05:44:06;99676.91;;;22.38;45.29
43312;BME280;30041;48.300;16.352;2023-04-26T05:46:31;99684.53;;;22.41;44.76
43312;BME280;30041;48.300;16.352;2023-04-26T05:48:57;99695.47;;;22.34;45.37
43312;BME280;30041;48.300;16.352;2023-04-26T05:51:22;99696.03;;;22.36;45.38
43312;BME280;30041;48.300;16.352;2023-04-26T05:53:48;99700.19;;;22.27;44.54
43312;BME280;30041;48.300;16.352;2023-04-26T05:56:13;99695.28;;;22.24;44.72
43312;BME280;30041;48.300;16.352;2023-04-26T05:58:39;99706.41;;;22.28;44.47
43312;BME280;30041;48.300;16.352;2023-04-26T06:01:04;99705.94;;;22.31;45.17
43312;BME280;30041;48.300;16.352;2023-04-26T06:03:29;99710.84;;;22.34;45.50
43312;BME280;30041;48.300;16.352;2023-04-26T06:05:55;99706.28;;;22.34;45.62
43312;BME280;30041;48.300;16.352;2023-04-26T06:08:20;99720.25;;;22.31;45.58
43312;BME280;30041;48.300;16.352;2023-04-26T06:10:46;99720.50;;;22.30;45.92
43312;BME280;30041;48.300;16.352;2023-04-26T06:13:11;99720.75;;;22.28;45.96
43312;BME280;30041;48.300;16.352;2023-04-26T06:15:37;99728.50;;;22.25;46.17
43312;BME280;30041;48.300;16.352;2023-04-26T06:18:04;99720.41;;;22.25;46.15
43312;BME280;30041;48.300;16.352;2023-04-26T06:20:29;99720.63;;;22.23;46.24
43312;BME280;30041;48.300;16.352;2023-04-26T06:22:55;99726.03;;;22.23;46.19
43312;BME280;30041;48.300;16.352;2023-04-26T06:25:20;99725.41;;;22.21;46.32
43312;BME280;30041;48.300;16.352;2023-04-26T06:27:46;99727.91;;;22.23;46.41
43312;BME280;30041;48.300;16.352;2023-04-26T06:30:11;99727.31;;;22.21;46.34
43312;BME280;30041;48.300;16.352;2023-04-26T06:32:39;99729.91;;;22.15;46.54
43312;BME280;30041;48.300;16.352;2023-04-26T06:35:05;99738.00;;;22.15;46.58
43312;BME280;30041;48.300;16.352;2023-04-26T06:37:30;99727.44;;;22.14;46.40
43312;BME280;30041;48.300;16.352;2023-04-26T06:39:56;99737.44;;;22.13;46.67
43312;BME280;30041;48.300;16.352;2023-04-26T06:42:21;99738.72;;;22.11;46.63
43312;BME280;30041;48.300;16.352;2023-04-26T06:44:47;99734.38;;;22.10;46.67
43312;BME280;30041;48.300;16.352;2023-04-26T06:47:12;99736.50;;;22.08;46.66
43312;BME280;30041;48.300;16.352;2023-04-26T06:49:37;99738.16;;;22.09;46.68
43312;BME280;30041;48.300;16.352;2023-04-26T06:52:03;99740.84;;;22.09;46.70
43312;BME280;30041;48.300;16.352;2023-04-26T06:54:29;99745.09;;;22.05;46.96
43312;BME280;30041;48.300;16.352;2023-04-26T06:56:55;99743.19;;;22.05;46.88
43312;BME280;30041;48.300;16.352;2023-04-26T06:59:21;99751.56;;;22.04;46.87
43312;BME280;30041;48.300;16.352;2023-04-26T07:01:46;99742.88;;;22.02;47.01
43312;BME280;30041;48.300;16.352;2023-04-26T07:04:12;99741.22;;;22.01;46.76
43312;BME280;30041;48.300;16.352;2023-04-26T07:06:38;99744.13;;;21.99;46.90
43312;BME280;30041;48.300;16.352;2023-04-26T07:09:03;99747.19;;;22.03;46.81
43312;BME280;30041;48.300;16.352;2023-04-26T07:11:29;99746.03;;;21.98;46.89
43312;BME280;30041;48.300;16.352;2023-04-26T07:13:55;99743.59;;;21.97;46.94
43312;BME280;30041;48.300;16.352;2023-04-26T07:16:20;99749.78;;;21.97;46.83
43312;BME280;30041;48.300;16.352;2023-04-26T07:18:46;99748.13;;;21.96;47.10
43312;BME280;30041;48.300;16.352;2023-04-26T07:21:11;99752.72;;;21.96;47.23
43312;BME280;30041;48.300;16.352;2023-04-26T07:23:37;99759.19;;;21.95;47.13
43312;BME280;30041;48.300;16.352;2023-04-26T07:26:02;99753.22;;;21.93;46.00
43312;BME280;30041;48.300;16.352;2023-04-26T07:28:28;99747.22;;;21.91;46.78
43312;BME280;30041;48.300;16.352;2023-04-26T07:30:53;99754.50;;;21.90;46.10
43312;BME280;30041;48.300;16.352;2023-04-26T07:33:19;99756.63;;;21.88;46.53
43312;BME280;30041;48.300;16.352;2023-04-26T07:35:52;99761.19;;;21.88;46.40
43312;BME280;30041;48.300;16.352;2023-04-26T07:38:18;99759.56;;;21.87;46.45
43312;BME280;30041;48.300;16.352;2023-04-26T07:40:43;99755.22;;;21.86;46.62
43312;BME280;30041;48.300;16.352;2023-04-26T07:43:09;99755.22;;;21.86;46.70
43312;BME280;30041;48.300;16.352;2023-04-26T07:45:34;99755.22;;;21.86;46.38
43312;BME280;30041;48.300;16.352;2023-04-26T07:48:00;99756.84;;;21.87;46.77
43312;BME280;30041;48.300;16.352;2023-04-26T07:50:25;99750.88;;;21.85;46.81
43312;BME280;30041;48.300;16.352;2023-04-26T07:52:51;99762.47;;;21.85;46.77
43312;BME280;30041;48.300;16.352;2023-04-26T07:55:16;99756.25;;;21.85;46.83
43312;BME280;30041;48.300;16.352;2023-04-26T07:57:42;99759.78;;;21.85;47.19
43312;BME280;30041;48.300;16.352;2023-04-26T08:00:07;99762.47;;;21.85;47.18
43312;BME280;30041;48.300;16.352;2023-04-26T08:02:33;99761.44;;;21.86;47.35
43312;BME280;30041;48.300;16.352;2023-04-26T08:04:59;99762.16;;;21.82;47.50
43312;BME280;30041;48.300;16.352;2023-04-26T08:07:24;99761.31;;;21.81;47.26
43312;BME280;30041;48.300;16.352;2023-04-26T08:09:49;99756.16;;;21.80;47.61
43312;BME280;30041;48.300;16.352;2023-04-26T08:12:15;99761.78;;;21.78;47.78
43312;BME280;30041;48.300;16.352;2023-04-26T08:14:41;99767.78;;;21.80;47.86
43312;BME280;30041;48.300;16.352;2023-04-26T08:17:07;99752.97;;;21.83;47.94
43312;BME280;30041;48.300;16.352;2023-04-26T08:19:32;99754.06;;;21.82;48.08
43312;BME280;30041;48.300;16.352;2023-04-26T08:21:58;99753.47;;;21.80;48.18
43312;BME280;30041;48.300;16.352;2023-04-26T08:24:24;99766.97;;;21.80;48.30
43312;BME280;30041;48.300;16.352;2023-04-26T08:26:49;99761.78;;;21.78;48.40
43312;BME280;30041;48.300;16.352;2023-04-26T08:29:15;99769.28;;;21.76;48.68
43312;BME280;30041;48.300;16.352;2023-04-26T08:31:40;99762.59;;;21.79;48.74
43312;BME280;30041;48.300;16.352;2023-04-26T08:34:06;99766.38;;;21.77;48.75
43312;BME280;30041;48.300;16.352;2023-04-26T08:36:35;99780.91;;;21.76;48.91
43312;BME280;30041;48.300;16.352;2023-04-26T08:39:01;99777.38;;;21.76;48.75
43312;BME280;30041;48.300;16.352;2023-04-26T08:41:26;99785.72;;;21.74;48.99
43312;BME280;30041;48.300;16.352;2023-04-26T08:43:53;99778.47;;;21.75;48.99
43312;BME280;30041;48.300;16.352;2023-04-26T08:46:19;99775.50;;;21.76;49.02
43312;BME280;30041;48.300;16.352;2023-04-26T08:48:53;99774.34;;;21.72;48.91
43312;BME280;30041;48.300;16.352;2023-04-26T08:51:22;99777.38;;;21.76;48.65
43312;BME280;30041;48.300;16.352;2023-04-26T08:53:49;99774.09;;;21.74;48.91
43312;BME280;30041;48.300;16.352;2023-04-26T08:56:15;99771.75;;;21.77;48.85
43312;BME280;30041;48.300;16.352;2023-04-26T08:58:41;99779.16;;;21.70;46.11
43312;BME280;30041;48.300;16.352;2023-04-26T09:01:08;99777.84;;;21.49;42.00
43312;BME280;30041;48.300;16.352;2023-04-26T09:03:34;99771.16;;;21.52;45.36
43312;BME280;30041;48.300;16.352;2023-04-26T09:06:00;99762.16;;;21.58;46.28
43312;BME280;30041;48.300;16.352;2023-04-26T09:08:26;99769.75;;;21.61;46.57
43312;BME280;30041;48.300;16.352;2023-04-26T09:10:52;99778.69;;;21.62;46.65
43312;BME280;30041;48.300;16.352;2023-04-26T09:13:17;99772.22;;;21.63;46.68
43312;BME280;30041;48.300;16.352;2023-04-26T09:15:47;99777.41;;;21.64;46.54
43312;BME280;30041;48.300;16.352;2023-04-26T09:18:17;99786.53;;;21.63;46.95
43312;BME280;30041;48.300;16.352;2023-04-26T09:20:44;99775.75;;;21.63;47.32
43312;BME280;30041;48.300;16.352;2023-04-26T09:23:10;99778.44;;;21.63;47.26
43312;BME280;30041;48.300;16.352;2023-04-26T09:25:36;99783.84;;;21.63;47.33
43312;BME280;30041;48.300;16.352;2023-04-26T09:28:02;99765.22;;;21.62;47.53
43312;BME280;30041;48.300;16.352;2023-04-26T09:30:29;99769.53;;;21.63;47.21
43312;BME280;30041;48.300;16.352;2023-04-26T09:33:02;99764.97;;;21.63;47.26
43312;BME280;30041;48.300;16.352;2023-04-26T09:35:39;99776.22;;;21.60;47.42
43312;BME280;30041;48.300;16.352;2023-04-26T09:38:09;99779.16;;;21.59;47.23
43312;BME280;30041;48.300;16.352;2023-04-26T09:40:37;99767.53;;;21.58;48.03
43312;BME280;30041;48.300;16.352;2023-04-26T09:45:57;99767.53;;;21.58;47.49
43312;BME280;30041;48.300;16.352;2023-04-26T09:50:50;99773.31;;;21.62;47.75
43312;BME280;30041;48.300;16.352;2023-04-26T09:56:18;99776.72;;;21.57;47.84
43312;BME280;30041;48.300;16.352;2023-04-26T10:01:17;99783.94;;;21.56;47.64
43312;BME280;30041;48.300;16.352;2023-04-26T10:03:43;99782.44;;;21.61;47.41
43312;BME280;30041;48.300;16.352;2023-04-26T10:06:08;99780.44;;;21.56;47.37
43312;BME280;30041;48.300;16.352;2023-04-26T10:08:34;99766.16;;;21.55;47.52
43312;BME280;30041;48.300;16.352;2023-04-26T10:11:02;99769.44;;;21.58;47.54
43312;BME280;30041;48.300;16.352;2023-04-26T10:13:30;99763.44;;;21.55;47.46
43312;BME280;30041;48.300;16.352;2023-04-26T10:15:56;99765.28;;;21.31;39.44
43312;BME280;30041;48.300;16.352;2023-04-26T10:18:21;99758.47;;;21.29;40.69
43312;BME280;30041;48.300;16.352;2023-04-26T10:20:50;99761.53;;;21.32;42.96
43312;BME280;30041;48.300;16.352;2023-04-26T10:23:19;99755.44;;;21.37;44.83
43312;BME280;30041;48.300;16.352;2023-04-26T10:25:45;99759.56;;;21.40;45.56
43312;BME280;30041;48.300;16.352;2023-04-26T10:28:10;99753.72;;;21.43;45.37
43312;BME280;30041;48.300;16.352;2023-04-26T10:30:57;99752.53;;;21.62;44.58
43312;BME280;30041;48.300;16.352;2023-04-26T10:33:24;99742.09;;;21.77;44.23
43312;BME280;30041;48.300;16.352;2023-04-26T10:36:04;99737.38;;;21.85;44.12
43312;BME280;30041;48.300;16.352;2023-04-26T10:38:30;99736.19;;;21.92;43.96
43312;BME280;30041;48.300;16.352;2023-04-26T10:43:53;99740.53;;;21.93;43.94
43312;BME280;30041;48.300;16.352;2023-04-26T10:46:38;99746.28;;;21.97;43.91
43312;BME280;30041;48.300;16.352;2023-04-26T10:49:16;99742.28;;;22.00;43.82
43312;BME280;30041;48.300;16.352;2023-04-26T10:52:10;99743.09;;;22.00;44.05
43312;BME280;30041;48.300;16.352;2023-04-26T10:57:11;99736.50;;;22.08;44.02
43312;BME280;30041;48.300;16.352;2023-04-26T10:59:37;99737.34;;;22.08;43.97
43312;BME280;30041;48.300;16.352;2023-04-26T11:02:02;99736.25;;;22.09;44.04
43312;BME280;30041;48.300;16.352;2023-04-26T11:04:50;99729.25;;;22.08;43.85
43312;BME280;30041;48.300;16.352;2023-04-26T11:07:35;99735.22;;;22.10;44.07
43312;BME280;30041;48.300;16.352;2023-04-26T11:10:00;99717.47;;;22.14;43.97
43312;BME280;30041;48.300;16.352;2023-04-26T11:12:26;99727.81;;;22.17;44.07
43312;BME280;30041;48.300;16.352;2023-04-26T11:14:52;99718.19;;;22.22;43.82
43312;BME280;30041;48.300;16.352;2023-04-26T11:17:17;99724.41;;;22.22;43.91
43312;BME280;30041;48.300;16.352;2023-04-26T11:19:45;99722.53;;;22.23;43.69
43312;BME280;30041;48.300;16.352;2023-04-26T11:22:11;99713.13;;;22.25;43.74
43312;BME280;30041;48.300;16.352;2023-04-26T11:24:36;99713.13;;;22.25;43.89
43312;BME280;30041;48.300;16.352;2023-04-26T11:27:09;99708.78;;;22.24;43.77
43312;BME280;30041;48.300;16.352;2023-04-26T11:29:34;99702.31;;;22.25;43.84
43312;BME280;30041;48.300;16.352;2023-04-26T11:32:01;99701.00;;;22.28;43.71
43312;BME280;30041;48.300;16.352;2023-04-26T11:34:37;99712.88;;;22.27;43.86
43312;BME280;30041;48.300;16.352;2023-04-26T11:37:02;99709.47;;;22.20;43.94
43312;BME280;30041;48.300;16.352;2023-04-26T11:39:30;99708.53;;;22.26;43.62
43312;BME280;30041;48.300;16.352;2023-04-26T11:42:04;99707.25;;;22.28;43.67
43312;BME280;30041;48.300;16.352;2023-04-26T11:44:29;99701.59;;;22.30;43.41
43312;BME280;30041;48.300;16.352;2023-04-26T11:46:55;99708.66;;;22.31;43.70
43312;BME280;30041;48.300;16.352;2023-04-26T11:49:21;99699.47;;;22.32;43.63
43312;BME280;30041;48.300;16.352;2023-04-26T11:51:47;99712.25;;;22.36;43.56
43312;BME280;30041;48.300;16.352;2023-04-26T11:54:29;99703.84;;;22.33;43.66
43312;BME280;30041;48.300;16.352;2023-04-26T11:56:55;99704.16;;;22.36;43.53
43312;BME280;30041;48.300;16.352;2023-04-26T11:59:28;99703.34;;;22.36;43.47
43312;BME280;30041;48.300;16.352;2023-04-26T12:01:57;99697.13;;;22.35;43.79
43312;BME280;30041;48.300;16.352;2023-04-26T12:04:29;99707.94;;;22.35;43.51
43312;BME280;30041;48.300;16.352;2023-04-26T12:06:56;99707.66;;;22.37;43.43
43312;BME280;30041;48.300;16.352;2023-04-26T12:09:29;99707.94;;;22.35;43.51
43312;BME280;30041;48.300;16.352;2023-04-26T12:12:02;99706.84;;;22.36;43.51
43312;BME280;30041;48.300;16.352;2023-04-26T12:14:35;99711.22;;;22.37;43.64
43312;BME280;30041;48.300;16.352;2023-04-26T12:17:02;99718.22;;;22.38;43.80
43312;BME280;30041;48.300;16.352;2023-04-26T12:19:39;99718.47;;;22.37;43.54
43312;BME280;30041;48.300;16.352;2023-04-26T12:22:06;99724.22;;;22.41;43.47
43312;BME280;30041;48.300;16.352;2023-04-26T12:24:32;99713.19;;;22.42;43.54
43312;BME280;30041;48.300;16.352;2023-04-26T12:26:58;99714.50;;;22.40;43.46
43312;BME280;30041;48.300;16.352;2023-04-26T12:29:23;99714.50;;;22.40;43.76
43312;BME280;30041;48.300;16.352;2023-04-26T12:31:49;99711.06;;;22.44;43.83
43312;BME280;30041;48.300;16.352;2023-04-26T12:34:14;99712.91;;;22.44;43.49
43312;BME280;30041;48.300;16.352;2023-04-26T12:36:40;99706.47;;;22.45;43.31
43312;BME280;30041;48.300;16.352;2023-04-26T12:41:31;99710.56;;;22.47;43.38
43312;BME280;30041;48.300;16.352;2023-04-26T12:43:57;99698.72;;;22.48;43.29
43312;BME280;30041;48.300;16.352;2023-04-26T12:46:22;99711.38;;;22.48;43.40
43312;BME280;30041;48.300;16.352;2023-04-26T12:48:47;99710.56;;;22.47;43.61
43312;BME280;30041;48.300;16.352;2023-04-26T12:51:13;99707.06;;;22.47;43.50
43312;BME280;30041;48.300;16.352;2023-04-26T12:53:38;99707.84;;;22.47;43.56
43312;BME280;30041;48.300;16.352;2023-04-26T12:56:04;99701.97;;;22.50;43.42
43312;BME280;30041;48.300;16.352;2023-04-26T12:58:30;99696.34;;;22.52;43.28
43312;BME280;30041;48.300;16.352;2023-04-26T13:00:55;99705.50;;;22.51;43.38
43312;BME280;30041;48.300;16.352;2023-04-26T13:03:21;99706.09;;;22.53;43.31
43312;BME280;30041;48.300;16.352;2023-04-26T13:05:46;99703.13;;;22.54;43.27